createdAt,value
2022-12-31T00:02:52.622Z,99597.66
2022-12-31T00:05:54.588Z,99596.29
2022-12-31T00:08:58.650Z,99599.49
2022-12-31T00:12:00.274Z,99596.77
2022-12-31T00:15:01.977Z,99585.70
2022-12-31T00:18:03.570Z,99590.27
2022-12-31T00:21:10.083Z,99595.67
2022-12-31T00:24:11.950Z,99605.86
2022-12-31T00:27:13.452Z,99609.58
2022-12-31T00:30:15.668Z,99603.93
2022-12-31T00:33:17.329Z,99602.53
2022-12-31T00:36:19.011Z,99603.52
2022-12-31T00:39:20.795Z,99599.61
2022-12-31T00:42:22.472Z,99593.51
2022-12-31T00:45:23.991Z,99593.02
2022-12-31T00:48:26.126Z,99587.63
2022-12-31T00:51:27.990Z,99584.11
2022-12-31T00:54:29.762Z,99578.85
2022-12-31T00:57:31.413Z,99577.70
2022-12-31T01:00:33.033Z,99581.48
2022-12-31T01:03:34.865Z,99578.61
2022-12-31T01:06:37.075Z,99580.52
2022-12-31T01:09:38.941Z,99579.89
2022-12-31T01:12:40.548Z,99576.88
2022-12-31T01:15:42.310Z,99573.67
2022-12-31T01:18:44.370Z,99568.90
2022-12-31T01:21:48.888Z,99562.80
2022-12-31T01:24:50.788Z,99555.16
2022-12-31T01:27:52.795Z,99548.05
2022-12-31T01:30:55.169Z,99547.03
2022-12-31T01:33:58.043Z,99549.06
2022-12-31T01:36:59.737Z,99550.77
2022-12-31T01:40:01.388Z,99548.05
2022-12-31T01:43:03.445Z,99540.21
2022-12-31T01:46:05.752Z,99530.84
2022-12-31T01:49:37.110Z,99534.02
2022-12-31T01:52:41.874Z,99528.36
2022-12-31T01:55:46.601Z,99532.54
2022-12-31T01:58:50.146Z,99534.85
2022-12-31T02:01:51.974Z,99545.38
2022-12-31T02:04:55.810Z,99548.56
2022-12-31T02:07:57.637Z,99542.43
2022-12-31T02:10:59.306Z,99537.30
2022-12-31T02:14:10.366Z,99533.01
2022-12-31T02:17:31.647Z,99528.34
2022-12-31T02:20:51.138Z,99528.31
2022-12-31T02:24:26.857Z,99527.55
2022-12-31T02:27:51.834Z,99523.00
2022-12-31T02:31:01.968Z,99530.05
2022-12-31T02:34:41.731Z,99532.58
2022-12-31T02:37:45.778Z,99534.64
2022-12-31T02:40:47.470Z,99537.08
2022-12-31T02:43:49.105Z,99535.88
2022-12-31T02:46:59.979Z,99533.30
2022-12-31T02:50:20.630Z,99536.80
2022-12-31T02:53:35.055Z,99534.13
2022-12-31T02:56:51.521Z,99528.52
2022-12-31T02:59:55.324Z,99521.17
2022-12-31T03:02:58.168Z,99523.66
2022-12-31T03:06:02.258Z,99524.31
2022-12-31T03:09:03.907Z,99512.23
2022-12-31T03:12:08.141Z,99511.52
2022-12-31T03:15:11.243Z,99515.45
2022-12-31T03:18:15.721Z,99524.66
2022-12-31T03:21:17.263Z,99529.09
2022-12-31T03:24:18.902Z,99537.81
2022-12-31T03:27:20.473Z,99531.70
2022-12-31T03:30:23.424Z,99529.05
2022-12-31T03:33:26.054Z,99523.14
2022-12-31T03:36:27.731Z,99518.38
2022-12-31T03:39:32.483Z,99520.58
2022-12-31T03:42:34.032Z,99509.70
2022-12-31T03:45:36.390Z,99493.19
2022-12-31T03:48:38.103Z,99492.16
2022-12-31T03:51:39.698Z,99491.81
2022-12-31T03:54:42.157Z,99490.26
2022-12-31T03:57:43.791Z,99498.23
2022-12-31T04:00:45.461Z,99510.65
2022-12-31T04:03:47.061Z,99517.96
2022-12-31T04:06:48.757Z,99528.69
2022-12-31T04:09:50.407Z,99524.44
2022-12-31T04:12:52.079Z,99521.55
2022-12-31T04:15:53.767Z,99525.98
2022-12-31T04:18:55.374Z,99533.46
2022-12-31T04:21:57.043Z,99541.83
2022-12-31T04:24:58.673Z,99546.59
2022-12-31T04:28:00.343Z,99549.68
2022-12-31T04:31:02.109Z,99553.29
2022-12-31T04:34:03.992Z,99551.77
2022-12-31T04:37:05.588Z,99552.96
2022-12-31T04:40:07.968Z,99558.58
2022-12-31T04:43:09.600Z,99557.39
2022-12-31T04:46:11.658Z,99558.94
2022-12-31T04:49:13.407Z,99551.98
2022-12-31T04:52:14.981Z,99547.23
2022-12-31T04:55:16.592Z,99534.48
2022-12-31T04:58:18.400Z,99536.20
2022-12-31T05:01:20.238Z,99543.70
2022-12-31T05:04:22.069Z,99544.23
2022-12-31T05:07:23.691Z,99546.09
2022-12-31T05:10:25.415Z,99556.48
2022-12-31T05:13:32.877Z,99576.71
2022-12-31T05:16:35.401Z,99589.13
2022-12-31T05:19:36.984Z,99595.74
2022-12-31T05:22:38.679Z,99597.27
2022-12-31T05:25:41.756Z,99598.27
2022-12-31T05:28:43.628Z,99593.51
2022-12-31T05:31:45.183Z,99591.10
2022-12-31T05:34:46.958Z,99592.80
2022-12-31T05:37:48.698Z,99586.84
2022-12-31T05:40:58.961Z,99587.52
2022-12-31T05:44:00.545Z,99586.34
2022-12-31T05:47:02.127Z,99585.50
2022-12-31T05:50:04.036Z,99589.26
2022-12-31T05:53:05.541Z,99591.48
2022-12-31T05:56:07.178Z,99592.83
2022-12-31T05:59:08.829Z,99594.69
2022-12-31T06:02:10.490Z,99596.88
2022-12-31T06:05:12.381Z,99589.06
2022-12-31T06:08:13.977Z,99589.23
2022-12-31T06:11:15.647Z,99587.36
2022-12-31T06:14:17.467Z,99584.98
2022-12-31T06:17:18.966Z,99587.53
2022-12-31T06:20:20.579Z,99594.17
2022-12-31T06:23:22.259Z,99600.98
2022-12-31T06:26:23.928Z,99609.33
2022-12-31T06:29:25.575Z,99618.34
2022-12-31T06:32:27.290Z,99616.48
2022-12-31T06:35:28.921Z,99608.65
2022-12-31T06:38:32.532Z,99613.39
2022-12-31T06:41:34.194Z,99620.87
2022-12-31T06:44:35.739Z,99624.80
2022-12-31T06:47:37.252Z,99619.17
2022-12-31T06:50:39.271Z,99624.45
2022-12-31T06:53:41.085Z,99624.45
2022-12-31T06:56:42.815Z,99623.25
2022-12-31T06:59:44.704Z,99623.95
2022-12-31T07:03:01.865Z,99629.88
2022-12-31T07:06:16.736Z,99631.06
2022-12-31T07:09:38.057Z,99643.82
2022-12-31T07:13:11.671Z,99648.40
2022-12-31T07:16:41.251Z,99647.86
2022-12-31T07:20:16.739Z,99650.23
2022-12-31T07:23:18.715Z,99653.98
2022-12-31T07:26:57.771Z,99655.33
2022-12-31T07:30:02.772Z,99639.66
2022-12-31T07:33:08.466Z,99642.48
2022-12-31T07:36:37.272Z,99641.98
2022-12-31T07:39:58.780Z,99648.05
2022-12-31T07:43:36.679Z,99651.60
2022-12-31T07:46:53.195Z,99660.78
2022-12-31T07:49:55.603Z,99661.40
2022-12-31T07:52:57.548Z,99661.34
2022-12-31T07:56:00.968Z,99656.49
2022-12-31T07:59:08.389Z,99652.50
2022-12-31T08:02:39.262Z,99656.33
2022-12-31T08:05:50.744Z,99658.80
2022-12-31T08:08:55.567Z,99656.84
2022-12-31T08:11:59.553Z,99656.39
2022-12-31T08:15:01.846Z,99664.27
2022-12-31T08:18:03.945Z,99674.70
2022-12-31T08:21:14.222Z,99674.40
2022-12-31T08:24:40.304Z,99678.16
2022-12-31T08:28:16.404Z,99679.54
2022-12-31T08:31:20.727Z,99679.36
2022-12-31T08:34:28.501Z,99675.92
2022-12-31T08:37:40.292Z,99672.70
2022-12-31T08:40:52.210Z,99671.55
2022-12-31T08:43:59.749Z,99660.39
2022-12-31T08:47:16.801Z,99659.60
2022-12-31T08:50:19.739Z,99652.41
2022-12-31T08:53:21.819Z,99647.14
2022-12-31T08:56:30.011Z,99652.48
2022-12-31T08:59:47.077Z,99647.20
2022-12-31T09:03:00.656Z,99657.17
2022-12-31T09:06:27.526Z,99661.59
2022-12-31T09:09:44.639Z,99656.44
2022-12-31T09:13:22.932Z,99671.05
2022-12-31T09:16:36.714Z,99674.65
2022-12-31T09:19:38.636Z,99662.58
2022-12-31T09:22:40.663Z,99661.14
2022-12-31T09:26:17.855Z,99670.23
2022-12-31T09:29:42.003Z,99673.89
2022-12-31T09:32:50.325Z,99666.14
2022-12-31T09:35:57.100Z,99667.98
2022-12-31T09:39:23.293Z,99665.98
2022-12-31T09:42:57.457Z,99663.77
2022-12-31T09:46:47.321Z,99667.74
2022-12-31T09:50:00.953Z,99669.27
2022-12-31T09:53:30.093Z,99668.52
2022-12-31T09:57:05.874Z,99662.77
2022-12-31T10:00:39.508Z,99662.05
2022-12-31T10:03:50.149Z,99658.30
2022-12-31T10:07:10.905Z,99649.15
2022-12-31T10:10:24.585Z,99642.25
2022-12-31T10:13:55.541Z,99636.92
2022-12-31T10:17:02.181Z,99640.83
2022-12-31T10:20:41.601Z,99635.06
2022-12-31T10:24:12.191Z,99635.87
2022-12-31T10:27:16.862Z,99635.28
2022-12-31T10:30:19.951Z,99635.20
2022-12-31T10:33:45.118Z,99637.65
2022-12-31T10:36:55.907Z,99631.42
2022-12-31T10:40:12.059Z,99632.55
2022-12-31T10:43:41.751Z,99635.18
2022-12-31T10:47:14.766Z,99626.98
2022-12-31T10:50:35.342Z,99619.31
2022-12-31T10:53:55.952Z,99612.06
2022-12-31T10:57:23.121Z,99605.85
2022-12-31T11:00:29.827Z,99601.13
2022-12-31T11:03:43.854Z,99599.30
2022-12-31T11:07:03.213Z,99604.42
2022-12-31T11:10:34.261Z,99606.87
2022-12-31T11:14:06.994Z,99605.38
2022-12-31T11:17:20.688Z,99608.73
2022-12-31T11:20:47.711Z,99607.88
2022-12-31T11:24:10.252Z,99607.93
2022-12-31T11:27:49.462Z,99603.67
2022-12-31T11:31:29.043Z,99608.19
2022-12-31T11:35:12.317Z,99605.88
2022-12-31T11:38:30.786Z,99599.11
2022-12-31T11:41:42.403Z,99597.17
2022-12-31T11:44:55.567Z,99591.16
2022-12-31T11:48:36.263Z,99587.98
2022-12-31T11:51:55.910Z,99592.21
2022-12-31T11:55:27.732Z,99591.48
2022-12-31T11:58:29.834Z,99593.81
2022-12-31T12:01:39.669Z,99592.98
2022-12-31T12:04:41.647Z,99591.09
2022-12-31T12:07:43.378Z,99581.70
2022-12-31T12:10:51.223Z,99581.21
2022-12-31T12:13:52.916Z,99579.38
2022-12-31T12:16:59.141Z,99577.49
2022-12-31T12:20:18.856Z,99576.52
2022-12-31T12:23:24.624Z,99572.27
2022-12-31T12:26:39.797Z,99578.49
2022-12-31T12:29:41.367Z,99582.55
2022-12-31T12:33:00.529Z,99579.18
2022-12-31T12:36:14.639Z,99565.59
2022-12-31T12:39:22.342Z,99568.95
2022-12-31T12:42:24.226Z,99569.00
2022-12-31T12:45:51.632Z,99564.58
2022-12-31T12:48:56.357Z,99566.91
2022-12-31T12:52:24.213Z,99573.77
2022-12-31T12:55:44.377Z,99576.95
2022-12-31T12:58:55.424Z,99579.70
2022-12-31T13:02:35.927Z,99577.46
2022-12-31T13:05:56.250Z,99580.07
2022-12-31T13:09:19.912Z,99586.39
2022-12-31T13:13:05.303Z,99588.23
2022-12-31T13:16:22.402Z,99586.48
2022-12-31T13:19:39.045Z,99590.71
2022-12-31T13:22:48.275Z,99588.11
2022-12-31T13:26:09.195Z,99593.75
2022-12-31T13:29:21.162Z,99596.84
2022-12-31T13:32:31.300Z,99600.42
2022-12-31T13:35:38.392Z,99601.72
2022-12-31T13:38:52.082Z,99603.65
2022-12-31T13:42:01.439Z,99597.17
2022-12-31T13:45:20.902Z,99602.59
2022-12-31T13:48:28.063Z,99604.21
2022-12-31T13:51:55.310Z,99600.41
2022-12-31T13:55:14.263Z,99601.04
2022-12-31T13:58:40.163Z,99596.29
2022-12-31T14:01:48.989Z,99601.52
2022-12-31T14:04:55.031Z,99604.71
2022-12-31T14:08:01.965Z,99611.84
2022-12-31T14:11:18.557Z,99616.33
2022-12-31T14:14:54.437Z,99615.41
2022-12-31T14:18:22.845Z,99616.05
2022-12-31T14:21:32.988Z,99620.39
2022-12-31T14:24:49.287Z,99618.94
2022-12-31T14:27:52.501Z,99617.17
2022-12-31T14:31:00.583Z,99618.80
2022-12-31T14:34:20.963Z,99620.30
2022-12-31T14:37:50.382Z,99618.14
2022-12-31T14:41:07.477Z,99619.02
2022-12-31T14:44:27.409Z,99619.73
2022-12-31T14:47:52.219Z,99619.23
2022-12-31T14:50:54.052Z,99621.85
2022-12-31T14:53:57.301Z,99618.08
2022-12-31T14:57:24.317Z,99616.83
2022-12-31T15:00:30.541Z,99615.07
2022-12-31T15:03:32.159Z,99621.54
2022-12-31T15:07:03.068Z,99618.08
2022-12-31T15:10:07.786Z,99630.58
2022-12-31T15:13:37.655Z,99632.63
2022-12-31T15:16:43.797Z,99641.04
2022-12-31T15:20:30.946Z,99641.48
2022-12-31T15:23:37.392Z,99643.10
2022-12-31T15:26:51.402Z,99645.75
2022-12-31T15:29:53.147Z,99651.05
2022-12-31T15:32:56.696Z,99644.61
2022-12-31T15:36:20.622Z,99640.20
2022-12-31T15:39:42.188Z,99633.86
2022-12-31T15:42:50.685Z,99641.19
2022-12-31T15:45:53.902Z,99648.30
2022-12-31T15:49:16.088Z,99654.51
2022-12-31T15:52:25.541Z,99659.24
2022-12-31T15:55:31.975Z,99660.42
2022-12-31T15:58:35.571Z,99663.68
2022-12-31T16:01:40.742Z,99669.09
2022-12-31T16:04:42.614Z,99667.93
2022-12-31T16:07:44.467Z,99666.69
2022-12-31T16:10:46.609Z,99669.23
2022-12-31T16:13:51.450Z,99666.58
2022-12-31T16:17:00.760Z,99670.30
2022-12-31T16:20:24.226Z,99665.37
2022-12-31T16:23:27.024Z,99666.94
2022-12-31T16:26:32.815Z,99671.03
2022-12-31T16:29:36.523Z,99676.48
2022-12-31T16:32:39.276Z,99675.50
2022-12-31T16:35:41.137Z,99674.52
2022-12-31T16:38:42.747Z,99676.07
2022-12-31T16:41:44.356Z,99682.55
2022-12-31T16:44:47.751Z,99685.79
2022-12-31T16:47:49.528Z,99689.62
2022-12-31T16:50:53.631Z,99690.48
2022-12-31T16:53:55.306Z,99697.20
2022-12-31T16:56:59.047Z,99698.48
2022-12-31T17:00:03.881Z,99695.77
2022-12-31T17:03:08.535Z,99706.18
2022-12-31T17:06:10.204Z,99709.26
2022-12-31T17:09:14.715Z,99706.89
2022-12-31T17:12:16.839Z,99704.16
2022-12-31T17:15:24.412Z,99703.91
2022-12-31T17:18:30.596Z,99702.55
2022-12-31T17:21:32.961Z,99694.14
2022-12-31T17:24:35.486Z,99701.36
2022-12-31T17:27:37.113Z,99698.07
2022-12-31T17:30:39.518Z,99697.70
2022-12-31T17:33:41.272Z,99703.73
2022-12-31T17:36:58.307Z,99701.38
2022-12-31T17:40:24.510Z,99692.13
2022-12-31T17:43:22.654Z,99685.80
2022-12-31T17:46:25.081Z,99689.08
2022-12-31T17:49:30.257Z,99692.70
2022-12-31T17:52:31.870Z,99687.01
2022-12-31T17:55:33.508Z,99696.70
2022-12-31T17:58:37.712Z,99696.34
2022-12-31T18:01:39.354Z,99700.30
2022-12-31T18:04:41.020Z,99704.00
2022-12-31T18:07:42.550Z,99703.11
2022-12-31T18:10:44.751Z,99703.63
2022-12-31T18:13:47.034Z,99704.45
2022-12-31T18:16:48.572Z,99706.23
2022-12-31T18:20:06.503Z,99710.52
2022-12-31T18:23:24.034Z,99707.24
2022-12-31T18:26:26.232Z,99705.26
2022-12-31T18:29:27.806Z,99707.18
2022-12-31T18:32:30.935Z,99709.52
2022-12-31T18:36:07.247Z,99709.39
2022-12-31T18:38:54.798Z,99707.59
2022-12-31T18:41:56.377Z,99712.67
2022-12-31T18:44:58.273Z,99714.11
2022-12-31T18:47:59.926Z,99715.86
2022-12-31T18:51:01.521Z,99707.95
2022-12-31T18:54:04.217Z,99709.42
2022-12-31T18:57:06.074Z,99707.59
2022-12-31T19:00:08.454Z,99701.26
2022-12-31T19:03:18.855Z,99706.43
2022-12-31T19:06:20.568Z,99710.44
2022-12-31T19:09:44.745Z,99715.59
2022-12-31T19:12:44.735Z,99714.09
2022-12-31T19:15:51.830Z,99713.15
2022-12-31T19:18:53.481Z,99713.10
2022-12-31T19:21:55.524Z,99712.71
2022-12-31T19:24:57.231Z,99719.49
2022-12-31T19:27:58.941Z,99726.13
2022-12-31T19:31:00.502Z,99731.63
2022-12-31T19:34:02.403Z,99737.60
2022-12-31T19:37:04.083Z,99733.58
2022-12-31T19:40:06.476Z,99729.22
2022-12-31T19:43:12.426Z,99736.23
2022-12-31T19:46:16.059Z,99735.01
2022-12-31T19:49:17.771Z,99737.22
2022-12-31T19:52:19.594Z,99740.77
2022-12-31T19:55:22.072Z,99741.42
2022-12-31T19:58:25.292Z,99739.94
2022-12-31T20:01:27.035Z,99739.95
2022-12-31T20:04:28.821Z,99742.90
2022-12-31T20:07:30.453Z,99746.33
2022-12-31T20:10:32.265Z,99751.63
2022-12-31T20:13:35.278Z,99751.89
2022-12-31T20:16:36.947Z,99749.83
2022-12-31T20:19:39.042Z,99751.73
2022-12-31T20:22:40.832Z,99751.02
2022-12-31T20:25:42.646Z,99753.39
2022-12-31T20:28:44.528Z,99759.18
2022-12-31T20:31:46.741Z,99764.42
2022-12-31T20:34:48.421Z,99764.05
2022-12-31T20:37:49.922Z,99765.63
2022-12-31T20:40:51.344Z,99770.35
2022-12-31T20:47:15.118Z,99766.47
2022-12-31T20:50:16.893Z,99770.80
2022-12-31T20:53:18.434Z,99765.27
2022-12-31T20:56:22.643Z,99765.88
2022-12-31T20:59:24.254Z,99774.18
2022-12-31T21:02:40.346Z,99776.96
2022-12-31T21:05:48.192Z,99778.47
2022-12-31T21:08:50.049Z,99765.80
2022-12-31T21:11:51.613Z,99763.33
2022-12-31T21:14:53.189Z,99756.54
2022-12-31T21:17:54.839Z,99749.95
2022-12-31T21:20:56.526Z,99749.92
2022-12-31T21:23:58.171Z,99746.64
2022-12-31T21:26:59.817Z,99745.05
2022-12-31T21:30:18.109Z,99740.84
2022-12-31T21:33:20.525Z,99738.98
2022-12-31T21:36:22.340Z,99736.80
2022-12-31T21:39:24.168Z,99733.23
2022-12-31T21:42:25.867Z,99729.39
2022-12-31T21:45:27.512Z,99724.45
2022-12-31T21:48:29.343Z,99723.87
2022-12-31T21:51:31.118Z,99729.73
2022-12-31T21:54:33.502Z,99730.60
2022-12-31T21:57:59.082Z,99727.34
2022-12-31T22:00:58.751Z,99741.48
2022-12-31T22:04:00.427Z,99755.21
2022-12-31T22:07:02.139Z,99746.52
2022-12-31T22:10:03.912Z,99752.61
2022-12-31T22:13:05.775Z,99758.83
2022-12-31T22:16:08.048Z,99752.54
2022-12-31T22:19:09.824Z,99752.91
2022-12-31T22:22:11.388Z,99755.06
2022-12-31T22:25:12.961Z,99752.54
2022-12-31T22:31:36.166Z,99742.89
2022-12-31T22:34:37.750Z,99744.55
2022-12-31T22:37:56.775Z,99745.59
2022-12-31T22:41:17.274Z,99738.55
2022-12-31T22:44:18.834Z,99736.66
2022-12-31T22:47:21.044Z,99739.44
2022-12-31T22:50:22.600Z,99741.30
2022-12-31T22:53:24.194Z,99745.16
2022-12-31T22:56:25.927Z,99747.73
2022-12-31T22:59:27.585Z,99747.06
2022-12-31T23:02:29.324Z,99743.86
2022-12-31T23:05:32.379Z,99745.36
2022-12-31T23:08:34.116Z,99750.46
2022-12-31T23:11:37.479Z,99753.48
2022-12-31T23:14:39.115Z,99755.62
2022-12-31T23:17:40.825Z,99764.87
2022-12-31T23:20:42.453Z,99759.38
2022-12-31T23:23:44.269Z,99756.09
2022-12-31T23:26:45.981Z,99755.84
2022-12-31T23:29:47.935Z,99754.41
2022-12-31T23:32:49.757Z,99752.17
2022-12-31T23:36:02.216Z,99754.73
2022-12-31T23:39:04.080Z,99752.83
2022-12-31T23:42:05.828Z,99756.94
2022-12-31T23:45:07.654Z,99755.50
2022-12-31T23:48:09.310Z,99753.11
2022-12-31T23:51:11.102Z,99750.38
2022-12-31T23:54:12.850Z,99752.92
2022-12-31T23:57:14.610Z,99752.88
